sensor_id;sensor_type;location;lat;lon;timestamp;pressure;altitude;pressure_sealevel;temperature;humidity
74218;BME280;62579;47.288;18.646;2023-08-12T00:00:28;100524.09;;;15.38;85.18
74218;BME280;62579;47.288;18.646;2023-08-12T00:02:54;100522.34;;;15.41;84.84
74218;BME280;62579;47.288;18.646;2023-08-12T00:05:19;100525.81;;;15.41;84.86
74218;BME280;62579;47.288;18.646;2023-08-12T00:07:45;100525.09;;;15.41;84.79
74218;BME280;62579;47.288;18.646;2023-08-12T00:10:11;100525.28;;;15.48;84.42
74218;BME280;62579;47.288;18.646;2023-08-12T00:12:37;100521.13;;;15.36;85.24
74218;BME280;62579;47.288;18.646;2023-08-12T00:15:02;100521.13;;;15.36;85.24
74218;BME280;62579;47.288;18.646;2023-08-12T00:17:29;100524.38;;;15.35;85.49
74218;BME280;62579;47.288;18.646;2023-08-12T00:19:54;100517.44;;;15.28;85.97
74218;BME280;62579;47.288;18.646;2023-08-12T00:22:19;100524.44;;;15.29;86.02
74218;BME280;62579;47.288;18.646;2023-08-12T00:24:45;100530.84;;;15.37;85.55
74218;BME280;62579;47.288;18.646;2023-08-12T00:27:10;100524.16;;;15.33;85.78
74218;BME280;62579;47.288;18.646;2023-08-12T00:29:35;100525.91;;;15.30;85.97
74218;BME280;62579;47.288;18.646;2023-08-12T00:32:01;100527.56;;;15.39;85.78
74218;BME280;62579;47.288;18.646;2023-08-12T00:34:26;100522.03;;;15.44;85.81
74218;BME280;62579;47.288;18.646;2023-08-12T00:36:51;100522.53;;;15.48;85.45
74218;BME280;62579;47.288;18.646;2023-08-12T00:39:17;100519.56;;;15.46;85.42
74218;BME280;62579;47.288;18.646;2023-08-12T00:41:42;100516.81;;;15.46;85.57
74218;BME280;62579;47.288;18.646;2023-08-12T00:44:07;100510.09;;;15.42;85.17
74218;BME280;62579;47.288;18.646;2023-08-12T00:46:33;100514.63;;;15.39;85.28
74218;BME280;62579;47.288;18.646;2023-08-12T00:48:59;100513.91;;;15.33;85.32
74218;BME280;62579;47.288;18.646;2023-08-12T00:51:24;100517.22;;;15.26;85.53
74218;BME280;62579;47.288;18.646;2023-08-12T00:53:49;100512.53;;;15.21;85.50
74218;BME280;62579;47.288;18.646;2023-08-12T00:56:15;100514.25;;;15.24;85.18
74218;BME280;62579;47.288;18.646;2023-08-12T00:58:40;100513.50;;;15.24;85.15
74218;BME280;62579;47.288;18.646;2023-08-12T01:01:06;100514.22;;;15.30;84.59
74218;BME280;62579;47.288;18.646;2023-08-12T01:03:32;100516.97;;;15.30;84.41
74218;BME280;62579;47.288;18.646;2023-08-12T01:05:57;100512.75;;;15.23;84.87
74218;BME280;62579;47.288;18.646;2023-08-12T01:08:23;100505.59;;;15.15;85.47
74218;BME280;62579;47.288;18.646;2023-08-12T01:11:00;100506.62;;;15.12;85.69
74218;BME280;62579;47.288;18.646;2023-08-12T01:13:34;100508.91;;;15.08;85.93
74218;BME280;62579;47.288;18.646;2023-08-12T01:16:03;100504.53;;;14.93;86.96
74218;BME280;62579;47.288;18.646;2023-08-12T01:18:29;100505.50;;;14.96;86.66
74218;BME280;62579;47.288;18.646;2023-08-12T01:20:54;100509.72;;;15.02;86.23
74218;BME280;62579;47.288;18.646;2023-08-12T01:23:20;100503.69;;;15.04;85.96
74218;BME280;62579;47.288;18.646;2023-08-12T01:25:45;100504.69;;;15.07;85.60
74218;BME280;62579;47.288;18.646;2023-08-12T01:28:11;100514.63;;;15.10;85.34
74218;BME280;62579;47.288;18.646;2023-08-12T01:30:43;100508.59;;;15.17;85.26
74218;BME280;62579;47.288;18.646;2023-08-12T01:33:13;100505.13;;;15.16;85.27
74218;BME280;62579;47.288;18.646;2023-08-12T01:35:44;100505.84;;;15.17;85.20
74218;BME280;62579;47.288;18.646;2023-08-12T01:38:12;100509.84;;;15.16;85.15
74218;BME280;62579;47.288;18.646;2023-08-12T01:40:38;100506.09;;;15.19;85.13
74218;BME280;62579;47.288;18.646;2023-08-12T01:43:04;100504.63;;;15.12;85.35
74218;BME280;62579;47.288;18.646;2023-08-12T01:45:30;100508.34;;;15.15;85.08
74218;BME280;62579;47.288;18.646;2023-08-12T01:47:55;100514.84;;;15.12;85.23
74218;BME280;62579;47.288;18.646;2023-08-12T01:50:21;100503.12;;;15.17;85.03
74218;BME280;62579;47.288;18.646;2023-08-12T01:52:46;100507.50;;;15.25;84.34
74218;BME280;62579;47.288;18.646;2023-08-12T01:55:11;100506.22;;;15.32;83.64
74218;BME280;62579;47.288;18.646;2023-08-12T01:57:37;100512.16;;;15.36;83.27
74218;BME280;62579;47.288;18.646;2023-08-12T02:00:02;100516.84;;;15.41;83.12
74218;BME280;62579;47.288;18.646;2023-08-12T02:02:27;100507.09;;;15.45;82.64
74218;BME280;62579;47.288;18.646;2023-08-12T02:04:53;100503.62;;;15.39;83.56
74218;BME280;62579;47.288;18.646;2023-08-12T02:07:18;100509.44;;;15.30;84.29
74218;BME280;62579;47.288;18.646;2023-08-12T02:09:43;100507.28;;;15.23;84.75
74218;BME280;62579;47.288;18.646;2023-08-12T02:12:08;100508.88;;;15.13;85.41
74218;BME280;62579;47.288;18.646;2023-08-12T02:14:33;100508.16;;;15.07;85.60
74218;BME280;62579;47.288;18.646;2023-08-12T02:16:59;100502.19;;;15.09;85.29
74218;BME280;62579;47.288;18.646;2023-08-12T02:19:24;100502.19;;;15.09;85.19
74218;BME280;62579;47.288;18.646;2023-08-12T02:21:49;100506.00;;;15.00;85.45
74218;BME280;62579;47.288;18.646;2023-08-12T02:24:14;100505.47;;;15.01;85.09
74218;BME280;62579;47.288;18.646;2023-08-12T02:26:40;100506.31;;;14.91;85.94
74218;BME280;62579;47.288;18.646;2023-08-12T02:29:05;100502.94;;;14.74;87.03
74218;BME280;62579;47.288;18.646;2023-08-12T02:31:30;100495.78;;;14.65;87.79
74218;BME280;62579;47.288;18.646;2023-08-12T02:33:55;100492.06;;;14.63;87.79
74218;BME280;62579;47.288;18.646;2023-08-12T02:36:20;100495.78;;;14.65;87.72
74218;BME280;62579;47.288;18.646;2023-08-12T02:38:46;100507.00;;;14.62;87.86
74218;BME280;62579;47.288;18.646;2023-08-12T02:41:11;100495.50;;;14.69;87.51
74218;BME280;62579;47.288;18.646;2023-08-12T02:43:36;100495.00;;;14.70;87.93
74218;BME280;62579;47.288;18.646;2023-08-12T02:46:01;100494.72;;;14.74;87.86
74218;BME280;62579;47.288;18.646;2023-08-12T02:48:26;100493.69;;;14.77;87.80
74218;BME280;62579;47.288;18.646;2023-08-12T02:50:52;100494.44;;;14.77;87.49
74218;BME280;62579;47.288;18.646;2023-08-12T02:53:17;100495.94;;;14.78;86.94
74218;BME280;62579;47.288;18.646;2023-08-12T02:55:42;100494.19;;;14.81;86.77
74218;BME280;62579;47.288;18.646;2023-08-12T02:58:07;100489.94;;;14.80;86.85
74218;BME280;62579;47.288;18.646;2023-08-12T03:00:32;100488.91;;;14.83;86.69
74218;BME280;62579;47.288;18.646;2023-08-12T03:02:58;100492.88;;;14.87;86.57
74218;BME280;62579;47.288;18.646;2023-08-12T03:05:23;100500.00;;;14.66;88.32
74218;BME280;62579;47.288;18.646;2023-08-12T03:07:49;100508.63;;;14.40;90.14
74218;BME280;62579;47.288;18.646;2023-08-12T03:10:14;100508.28;;;14.55;88.66
74218;BME280;62579;47.288;18.646;2023-08-12T03:12:39;100505.03;;;14.57;88.07
74218;BME280;62579;47.288;18.646;2023-08-12T03:15:05;100510.81;;;14.48;88.64
74218;BME280;62579;47.288;18.646;2023-08-12T03:17:31;100511.75;;;14.56;88.23
74218;BME280;62579;47.288;18.646;2023-08-12T03:19:57;100522.72;;;14.56;87.97
74218;BME280;62579;47.288;18.646;2023-08-12T03:22:24;100517.75;;;14.54;88.17
74218;BME280;62579;47.288;18.646;2023-08-12T03:24:49;100521.03;;;14.47;88.43
74218;BME280;62579;47.288;18.646;2023-08-12T03:27:14;100521.59;;;14.34;89.07
74218;BME280;62579;47.288;18.646;2023-08-12T03:29:39;100525.56;;;14.33;89.26
74218;BME280;62579;47.288;18.646;2023-08-12T03:32:04;100525.66;;;14.17;90.65
74218;BME280;62579;47.288;18.646;2023-08-12T03:34:30;100531.59;;;14.21;90.32
74218;BME280;62579;47.288;18.646;2023-08-12T03:36:55;100531.09;;;14.22;90.51
74218;BME280;62579;47.288;18.646;2023-08-12T03:39:20;100529.16;;;14.12;91.22
74218;BME280;62579;47.288;18.646;2023-08-12T03:41:45;100527.88;;;14.18;90.40
74218;BME280;62579;47.288;18.646;2023-08-12T03:44:11;100541.34;;;14.05;91.62
74218;BME280;62579;47.288;18.646;2023-08-12T03:46:36;100531.84;;;14.17;90.66
74218;BME280;62579;47.288;18.646;2023-08-12T03:49:01;100540.03;;;14.23;90.14
74218;BME280;62579;47.288;18.646;2023-08-12T03:51:26;100534.56;;;14.23;90.49
74218;BME280;62579;47.288;18.646;2023-08-12T03:53:52;100536.34;;;14.15;91.50
74218;BME280;62579;47.288;18.646;2023-08-12T03:56:17;100528.34;;;14.28;90.43
74218;BME280;62579;47.288;18.646;2023-08-12T03:58:42;100529.06;;;14.28;90.12
74218;BME280;62579;47.288;18.646;2023-08-12T04:01:07;100537.78;;;14.27;90.50
74218;BME280;62579;47.288;18.646;2023-08-12T04:03:33;100538.53;;;14.27;90.86
74218;BME280;62579;47.288;18.646;2023-08-12T04:05:58;100544.28;;;14.18;92.33
74218;BME280;62579;47.288;18.646;2023-08-12T04:08:23;100545.28;;;14.15;92.08
74218;BME280;62579;47.288;18.646;2023-08-12T04:10:50;100547.75;;;14.24;91.16
74218;BME280;62579;47.288;18.646;2023-08-12T04:13:15;100543.25;;;14.27;90.62
74218;BME280;62579;47.288;18.646;2023-08-12T04:15:40;100542.06;;;14.17;90.11
74218;BME280;62579;47.288;18.646;2023-08-12T04:18:06;100539.81;;;14.15;90.33
74218;BME280;62579;47.288;18.646;2023-08-12T04:20:31;100543.06;;;14.14;90.43
74218;BME280;62579;47.288;18.646;2023-08-12T04:22:56;100549.53;;;14.16;91.91
74218;BME280;62579;47.288;18.646;2023-08-12T04:25:22;100546.00;;;14.32;90.60
74218;BME280;62579;47.288;18.646;2023-08-12T04:30:32;100545.25;;;14.32;90.35
74218;BME280;62579;47.288;18.646;2023-08-12T04:32:57;100548.75;;;14.32;90.58
74218;BME280;62579;47.288;18.646;2023-08-12T04:35:23;100547.53;;;14.22;91.34
74218;BME280;62579;47.288;18.646;2023-08-12T04:37:48;100543.72;;;14.36;90.90
74218;BME280;62579;47.288;18.646;2023-08-12T04:40:13;100550.44;;;14.47;91.14
74218;BME280;62579;47.288;18.646;2023-08-12T04:42:38;100547.69;;;14.47;91.95
74218;BME280;62579;47.288;18.646;2023-08-12T04:45:04;100556.09;;;14.54;92.53
74218;BME280;62579;47.288;18.646;2023-08-12T04:47:29;100559.03;;;14.67;91.88
74218;BME280;62579;47.288;18.646;2023-08-12T04:49:54;100559.19;;;14.80;91.35
74218;BME280;62579;47.288;18.646;2023-08-12T04:52:20;100546.91;;;14.92;90.43
74218;BME280;62579;47.288;18.646;2023-08-12T04:54:45;100555.56;;;15.02;90.32
74218;BME280;62579;47.288;18.646;2023-08-12T04:57:10;100558.00;;;15.11;90.24
74218;BME280;62579;47.288;18.646;2023-08-12T04:59:36;100559.28;;;15.34;89.45
74218;BME280;62579;47.288;18.646;2023-08-12T05:02:01;100554.94;;;15.50;88.50
74218;BME280;62579;47.288;18.646;2023-08-12T05:04:27;100556.38;;;15.56;88.11
74218;BME280;62579;47.288;18.646;2023-08-12T05:06:52;100558.56;;;15.63;87.98
74218;BME280;62579;47.288;18.646;2023-08-12T05:09:17;100566.22;;;15.71;88.62
74218;BME280;62579;47.288;18.646;2023-08-12T05:11:42;100558.66;;;15.77;88.69
74218;BME280;62579;47.288;18.646;2023-08-12T05:14:08;100567.31;;;15.86;88.66
74218;BME280;62579;47.288;18.646;2023-08-12T05:16:33;100566.66;;;15.99;88.94
74218;BME280;62579;47.288;18.646;2023-08-12T05:18:58;100569.28;;;16.10;89.82
74218;BME280;62579;47.288;18.646;2023-08-12T05:21:23;100565.63;;;16.26;89.87
74218;BME280;62579;47.288;18.646;2023-08-12T05:23:49;100557.16;;;16.43;90.08
74218;BME280;62579;47.288;18.646;2023-08-12T05:26:14;100558.91;;;16.64;89.76
74218;BME280;62579;47.288;18.646;2023-08-12T05:28:39;100551.06;;;16.87;89.65
74218;BME280;62579;47.288;18.646;2023-08-12T05:31:04;100557.38;;;17.01;86.47
74218;BME280;62579;47.288;18.646;2023-08-12T05:33:30;100556.09;;;17.33;85.99
74218;BME280;62579;47.288;18.646;2023-08-12T05:35:55;100543.44;;;17.57;83.67
74218;BME280;62579;47.288;18.646;2023-08-12T05:38:20;100543.56;;;17.64;82.06
74218;BME280;62579;47.288;18.646;2023-08-12T05:40:45;100551.41;;;17.73;80.17
74218;BME280;62579;47.288;18.646;2023-08-12T05:43:10;100540.50;;;17.94;80.99
74218;BME280;62579;47.288;18.646;2023-08-12T05:45:35;100536.78;;;18.05;81.29
74218;BME280;62579;47.288;18.646;2023-08-12T05:48:01;100536.69;;;18.23;80.68
74218;BME280;62579;47.288;18.646;2023-08-12T05:50:26;100538.00;;;18.43;79.83
74218;BME280;62579;47.288;18.646;2023-08-12T05:52:51;100536.53;;;18.55;79.31
74218;BME280;62579;47.288;18.646;2023-08-12T05:55:16;100542.16;;;18.49;73.33
74218;BME280;62579;47.288;18.646;2023-08-12T05:57:41;100532.28;;;18.54;71.20
74218;BME280;62579;47.288;18.646;2023-08-12T06:00:07;100538.34;;;18.52;71.30
74218;BME280;62579;47.288;18.646;2023-08-12T06:02:32;100532.78;;;18.66;70.92
74218;BME280;62579;47.288;18.646;2023-08-12T06:04:57;100536.63;;;18.83;71.69
74218;BME280;62579;47.288;18.646;2023-08-12T06:07:23;100539.34;;;19.17;71.70
74218;BME280;62579;47.288;18.646;2023-08-12T06:09:48;100539.44;;;19.53;73.29
74218;BME280;62579;47.288;18.646;2023-08-12T06:12:13;100547.81;;;19.60;70.34
74218;BME280;62579;47.288;18.646;2023-08-12T06:14:38;100543.84;;;19.76;68.87
74218;BME280;62579;47.288;18.646;2023-08-12T06:17:04;100543.97;;;19.99;67.89
74218;BME280;62579;47.288;18.646;2023-08-12T06:19:29;100543.38;;;19.93;64.98
74218;BME280;62579;47.288;18.646;2023-08-12T06:21:54;100549.78;;;20.16;63.13
74218;BME280;62579;47.288;18.646;2023-08-12T06:24:20;100547.75;;;20.17;64.34
74218;BME280;62579;47.288;18.646;2023-08-12T06:26:45;100542.47;;;20.26;64.18
74218;BME280;62579;47.288;18.646;2023-08-12T06:29:10;100551.03;;;20.44;63.75
74218;BME280;62579;47.288;18.646;2023-08-12T06:31:35;100549.78;;;20.60;62.82
74218;BME280;62579;47.288;18.646;2023-08-12T06:34:00;100551.09;;;20.66;62.66
74218;BME280;62579;47.288;18.646;2023-08-12T06:36:26;100552.25;;;20.86;61.10
74218;BME280;62579;47.288;18.646;2023-08-12T06:38:51;100544.69;;;20.94;63.62
74218;BME280;62579;47.288;18.646;2023-08-12T06:41:16;100549.47;;;21.01;62.97
74218;BME280;62579;47.288;18.646;2023-08-12T06:43:41;100544.91;;;21.11;63.31
74218;BME280;62579;47.288;18.646;2023-08-12T06:46:07;100544.56;;;21.30;63.52
74218;BME280;62579;47.288;18.646;2023-08-12T06:48:32;100542.53;;;21.45;63.74
74218;BME280;62579;47.288;18.646;2023-08-12T06:50:57;100542.50;;;21.53;63.24
74218;BME280;62579;47.288;18.646;2023-08-12T06:53:24;100542.66;;;21.63;62.92
74218;BME280;62579;47.288;18.646;2023-08-12T06:55:50;100549.16;;;21.58;63.66
74218;BME280;62579;47.288;18.646;2023-08-12T06:58:15;100549.66;;;21.79;64.33
74218;BME280;62579;47.288;18.646;2023-08-12T07:00:40;100542.09;;;21.72;62.20
74218;BME280;62579;47.288;18.646;2023-08-12T07:03:05;100553.22;;;21.64;62.74
74218;BME280;62579;47.288;18.646;2023-08-12T07:05:31;100553.03;;;21.70;60.65
74218;BME280;62579;47.288;18.646;2023-08-12T07:07:56;100549.88;;;21.81;62.03
74218;BME280;62579;47.288;18.646;2023-08-12T07:10:21;100543.72;;;22.05;60.26
74218;BME280;62579;47.288;18.646;2023-08-12T07:12:46;100545.56;;;22.10;60.98
74218;BME280;62579;47.288;18.646;2023-08-12T07:15:11;100537.75;;;22.24;60.01
74218;BME280;62579;47.288;18.646;2023-08-12T07:17:37;100534.44;;;22.18;59.00
74218;BME280;62579;47.288;18.646;2023-08-12T07:20:02;100536.97;;;22.31;58.66
74218;BME280;62579;47.288;18.646;2023-08-12T07:22:29;100536.16;;;22.45;59.15
74218;BME280;62579;47.288;18.646;2023-08-12T07:24:54;100532.19;;;22.63;57.70
74218;BME280;62579;47.288;18.646;2023-08-12T07:27:20;100537.12;;;22.72;59.69
74218;BME280;62579;47.288;18.646;2023-08-12T07:29:45;100540.22;;;22.84;58.72
74218;BME280;62579;47.288;18.646;2023-08-12T07:32:11;100540.34;;;22.94;57.93
74218;BME280;62579;47.288;18.646;2023-08-12T07:34:37;100540.66;;;22.98;56.45
74218;BME280;62579;47.288;18.646;2023-08-12T07:37:02;100542.09;;;23.06;59.20
74218;BME280;62579;47.288;18.646;2023-08-12T07:39:27;100544.12;;;23.06;58.46
74218;BME280;62579;47.288;18.646;2023-08-12T07:41:53;100540.16;;;23.16;56.55
74218;BME280;62579;47.288;18.646;2023-08-12T07:44:18;100539.72;;;23.03;55.83
74218;BME280;62579;47.288;18.646;2023-08-12T07:46:43;100535.78;;;23.30;56.74
74218;BME280;62579;47.288;18.646;2023-08-12T07:49:08;100534.66;;;23.33;56.72
74218;BME280;62579;47.288;18.646;2023-08-12T07:51:33;100536.03;;;23.50;57.50
74218;BME280;62579;47.288;18.646;2023-08-12T07:53:59;100545.87;;;23.43;57.97
74218;BME280;62579;47.288;18.646;2023-08-12T07:56:24;100536.25;;;23.61;54.35
74218;BME280;62579;47.288;18.646;2023-08-12T07:58:49;100541.22;;;23.46;56.31
74218;BME280;62579;47.288;18.646;2023-08-12T08:04:00;100535.78;;;23.72;54.50
74218;BME280;62579;47.288;18.646;2023-08-12T08:06:25;100536.19;;;23.52;55.26
74218;BME280;62579;47.288;18.646;2023-08-12T08:08:50;100537.09;;;23.71;55.98
74218;BME280;62579;47.288;18.646;2023-08-12T08:11:15;100525.97;;;23.88;55.35
74218;BME280;62579;47.288;18.646;2023-08-12T08:13:40;100533.16;;;23.91;54.49
74218;BME280;62579;47.288;18.646;2023-08-12T08:16:06;100528.59;;;23.86;53.30
74218;BME280;62579;47.288;18.646;2023-08-12T08:18:31;100529.59;;;23.81;54.02
74218;BME280;62579;47.288;18.646;2023-08-12T08:20:56;100526.81;;;23.81;53.48
74218;BME280;62579;47.288;18.646;2023-08-12T08:23:21;100526.41;;;23.85;53.12
74218;BME280;62579;47.288;18.646;2023-08-12T08:25:47;100528.75;;;24.06;55.73
74218;BME280;62579;47.288;18.646;2023-08-12T08:28:12;100529.97;;;24.29;54.03
74218;BME280;62579;47.288;18.646;2023-08-12T08:30:37;100526.13;;;24.25;53.40
74218;BME280;62579;47.288;18.646;2023-08-12T08:33:03;100518.37;;;24.50;51.15
74218;BME280;62579;47.288;18.646;2023-08-12T08:35:28;100530.16;;;24.14;52.56
74218;BME280;62579;47.288;18.646;2023-08-12T08:37:53;100522.94;;;24.28;51.57
74218;BME280;62579;47.288;18.646;2023-08-12T08:40:19;100517.97;;;24.54;54.28
74218;BME280;62579;47.288;18.646;2023-08-12T08:42:44;100518.94;;;24.75;52.26
74218;BME280;62579;47.288;18.646;2023-08-12T08:45:12;100521.16;;;24.77;53.33
74218;BME280;62579;47.288;18.646;2023-08-12T08:47:38;100518.16;;;24.92;54.08
74218;BME280;62579;47.288;18.646;2023-08-12T08:50:04;100514.78;;;24.93;51.58
74218;BME280;62579;47.288;18.646;2023-08-12T08:52:30;100518.84;;;24.83;51.53
74218;BME280;62579;47.288;18.646;2023-08-12T08:54:56;100514.91;;;25.22;50.17
74218;BME280;62579;47.288;18.646;2023-08-12T08:57:22;100521.44;;;25.07;49.23
74218;BME280;62579;47.288;18.646;2023-08-12T08:59:47;100522.53;;;25.22;50.04
74218;BME280;62579;47.288;18.646;2023-08-12T09:02:16;100522.75;;;25.06;47.02
74218;BME280;62579;47.288;18.646;2023-08-12T09:04:43;100515.69;;;24.96;47.15
74218;BME280;62579;47.288;18.646;2023-08-12T09:07:11;100518.44;;;25.32;46.77
74218;BME280;62579;47.288;18.646;2023-08-12T09:09:36;100514.78;;;25.39;47.94
74218;BME280;62579;47.288;18.646;2023-08-12T09:12:01;100516.22;;;25.21;46.75
74218;BME280;62579;47.288;18.646;2023-08-12T09:14:28;100521.34;;;25.25;44.92
74218;BME280;62579;47.288;18.646;2023-08-12T09:16:53;100512.13;;;25.22;45.18
74218;BME280;62579;47.288;18.646;2023-08-12T09:19:19;100517.84;;;25.34;46.53
74218;BME280;62579;47.288;18.646;2023-08-12T09:21:45;100511.59;;;25.52;47.22
74218;BME280;62579;47.288;18.646;2023-08-12T09:24:16;100514.56;;;25.74;46.38
74218;BME280;62579;47.288;18.646;2023-08-12T09:26:42;100506.94;;;25.84;44.49
74218;BME280;62579;47.288;18.646;2023-08-12T09:29:07;100507.66;;;25.94;45.61
74218;BME280;62579;47.288;18.646;2023-08-12T09:31:32;100503.09;;;25.98;46.21
74218;BME280;62579;47.288;18.646;2023-08-12T09:33:59;100502.97;;;25.87;44.97
74218;BME280;62579;47.288;18.646;2023-08-12T09:36:27;100503.97;;;26.01;45.05
74218;BME280;62579;47.288;18.646;2023-08-12T09:38:52;100503.25;;;25.72;45.34
74218;BME280;62579;47.288;18.646;2023-08-12T09:41:17;100497.22;;;25.56;46.14
74218;BME280;62579;47.288;18.646;2023-08-12T09:43:44;100493.72;;;25.84;46.04
74218;BME280;62579;47.288;18.646;2023-08-12T09:46:12;100487.84;;;25.90;44.74
74218;BME280;62579;47.288;18.646;2023-08-12T09:48:40;100496.22;;;25.71;45.65
74218;BME280;62579;47.288;18.646;2023-08-12T09:51:06;100502.66;;;26.02;45.74
74218;BME280;62579;47.288;18.646;2023-08-12T09:53:32;100497.38;;;25.96;44.15
74218;BME280;62579;47.288;18.646;2023-08-12T09:55:57;100495.16;;;26.04;43.82
74218;BME280;62579;47.288;18.646;2023-08-12T09:58:26;100491.34;;;26.00;44.74
74218;BME280;62579;47.288;18.646;2023-08-12T10:00:54;100485.03;;;26.18;45.50
74218;BME280;62579;47.288;18.646;2023-08-12T10:03:28;100480.16;;;26.38;46.20
74218;BME280;62579;47.288;18.646;2023-08-12T10:05:57;100478.94;;;26.41;45.84
74218;BME280;62579;47.288;18.646;2023-08-12T10:08:22;100480.78;;;26.17;44.55
74218;BME280;62579;47.288;18.646;2023-08-12T10:10:48;100480.41;;;26.42;43.67
74218;BME280;62579;47.288;18.646;2023-08-12T10:13:13;100474.22;;;26.53;42.76
74218;BME280;62579;47.288;18.646;2023-08-12T10:18:31;100470.06;;;26.23;43.43
74218;BME280;62579;47.288;18.646;2023-08-12T10:20:57;100470.66;;;26.62;44.58
74218;BME280;62579;47.288;18.646;2023-08-12T10:23:23;100471.94;;;26.80;45.45
74218;BME280;62579;47.288;18.646;2023-08-12T10:25:49;100474.44;;;26.27;43.29
74218;BME280;62579;47.288;18.646;2023-08-12T10:28:18;100469.78;;;26.00;44.15
74218;BME280;62579;47.288;18.646;2023-08-12T10:30:50;100470.63;;;26.12;43.96
74218;BME280;62579;47.288;18.646;2023-08-12T10:33:16;100464.34;;;26.21;43.61
74218;BME280;62579;47.288;18.646;2023-08-12T10:38:11;100453.19;;;26.62;44.37
74218;BME280;62579;47.288;18.646;2023-08-12T10:40:36;100451.75;;;26.51;44.74
74218;BME280;62579;47.288;18.646;2023-08-12T10:43:12;100450.87;;;26.89;43.75
74218;BME280;62579;47.288;18.646;2023-08-12T10:45:42;100453.53;;;27.08;44.95
74218;BME280;62579;47.288;18.646;2023-08-12T10:50:33;100444.44;;;27.50;45.55
74218;BME280;62579;47.288;18.646;2023-08-12T10:52:59;100452.91;;;27.40;46.38
74218;BME280;62579;47.288;18.646;2023-08-12T10:55:47;100439.72;;;27.53;46.82
74218;BME280;62579;47.288;18.646;2023-08-12T10:58:13;100439.03;;;27.64;44.11
74218;BME280;62579;47.288;18.646;2023-08-12T11:00:51;100435.62;;;27.65;44.72
74218;BME280;62579;47.288;18.646;2023-08-12T11:03:18;100432.91;;;27.88;42.79
74218;BME280;62579;47.288;18.646;2023-08-12T11:05:43;100433.78;;;27.91;41.65
74218;BME280;62579;47.288;18.646;2023-08-12T11:08:11;100427.34;;;28.00;41.74
74218;BME280;62579;47.288;18.646;2023-08-12T11:10:38;100426.19;;;28.15;44.23
74218;BME280;62579;47.288;18.646;2023-08-12T11:13:03;100426.81;;;28.36;42.96
74218;BME280;62579;47.288;18.646;2023-08-12T11:18:02;100413.91;;;28.31;40.45
74218;BME280;62579;47.288;18.646;2023-08-12T11:20:28;100417.19;;;28.16;39.42
74218;BME280;62579;47.288;18.646;2023-08-12T11:22:56;100404.16;;;28.09;40.63
74218;BME280;62579;47.288;18.646;2023-08-12T11:25:23;100398.56;;;28.09;41.38
74218;BME280;62579;47.288;18.646;2023-08-12T11:27:49;100396.25;;;28.17;43.31
74218;BME280;62579;47.288;18.646;2023-08-12T11:30:15;100399.91;;;28.20;42.38
74218;BME280;62579;47.288;18.646;2023-08-12T11:32:41;100400.78;;;28.34;41.87
74218;BME280;62579;47.288;18.646;2023-08-12T11:57:18;100392.75;;;28.40;39.10
74218;BME280;62579;47.288;18.646;2023-08-12T11:59:43;100375.69;;;28.24;40.44
74218;BME280;62579;47.288;18.646;2023-08-12T12:02:09;100382.16;;;28.38;39.18
74218;BME280;62579;47.288;18.646;2023-08-12T12:04:35;100379.59;;;28.42;38.44
74218;BME280;62579;47.288;18.646;2023-08-12T12:07:00;100376.69;;;28.64;39.24
74218;BME280;62579;47.288;18.646;2023-08-12T12:09:31;100374.12;;;28.56;38.44
74218;BME280;62579;47.288;18.646;2023-08-12T12:11:56;100376.56;;;28.50;39.61
74218;BME280;62579;47.288;18.646;2023-08-12T12:14:21;100364.50;;;28.47;38.82
74218;BME280;62579;47.288;18.646;2023-08-12T12:16:47;100364.28;;;28.67;43.09
74218;BME280;62579;47.288;18.646;2023-08-12T12:19:22;100362.78;;;28.77;39.69
74218;BME280;62579;47.288;18.646;2023-08-12T12:21:52;100354.69;;;28.95;40.08
74218;BME280;62579;47.288;18.646;2023-08-12T12:24:17;100355.31;;;28.93;39.24
74218;BME280;62579;47.288;18.646;2023-08-12T12:26:43;100351.03;;;28.92;37.34
74218;BME280;62579;47.288;18.646;2023-08-12T12:29:09;100358.03;;;28.56;37.67
74218;BME280;62579;47.288;18.646;2023-08-12T12:31:37;100357.53;;;28.60;37.71
74218;BME280;62579;47.288;18.646;2023-08-12T12:34:02;100358.28;;;28.60;37.48
74218;BME280;62579;47.288;18.646;2023-08-12T12:36:31;100350.00;;;28.51;38.10
74218;BME280;62579;47.288;18.646;2023-08-12T12:38:57;100341.59;;;28.74;39.32
74218;BME280;62579;47.288;18.646;2023-08-12T12:41:22;100344.78;;;28.69;37.74
74218;BME280;62579;47.288;18.646;2023-08-12T12:43:47;100339.63;;;28.77;37.56
74218;BME280;62579;47.288;18.646;2023-08-12T12:46:12;100340.00;;;28.59;36.94
74218;BME280;62579;47.288;18.646;2023-08-12T12:48:38;100336.75;;;28.63;36.76
74218;BME280;62579;47.288;18.646;2023-08-12T12:51:03;100342.06;;;28.82;38.26
74218;BME280;62579;47.288;18.646;2023-08-12T12:53:28;100337.66;;;28.91;37.80
74218;BME280;62579;47.288;18.646;2023-08-12T12:55:54;100339.84;;;28.92;37.54
74218;BME280;62579;47.288;18.646;2023-08-12T12:58:21;100332.28;;;28.95;36.94
74218;BME280;62579;47.288;18.646;2023-08-12T13:00:48;100326.31;;;28.89;37.24
74218;BME280;62579;47.288;18.646;2023-08-12T13:03:13;100322.66;;;28.86;40.52
74218;BME280;62579;47.288;18.646;2023-08-12T13:05:38;100321.03;;;29.06;37.33
74218;BME280;62579;47.288;18.646;2023-08-12T13:08:04;100323.94;;;29.08;37.80
74218;BME280;62579;47.288;18.646;2023-08-12T13:10:29;100312.03;;;29.33;39.71